createdAt,value
2018-01-18T00:00:58.553Z,0
2018-01-18T00:02:08.535Z,0
2018-01-18T00:03:18.514Z,0
2018-01-18T00:04:28.492Z,0
2018-01-18T00:05:38.474Z,0
2018-01-18T00:06:48.451Z,0
2018-01-18T00:07:58.428Z,0
2018-01-18T00:09:07.873Z,0
2018-01-18T00:10:17.848Z,0
2018-01-18T00:11:27.828Z,0
2018-01-18T00:12:37.807Z,0
2018-01-18T00:13:47.783Z,0
2018-01-18T00:14:57.759Z,0
2018-01-18T00:16:07.738Z,0
2018-01-18T00:17:17.449Z,0
2018-01-18T00:18:27.425Z,0
2018-01-18T00:19:36.606Z,0
2018-01-18T00:20:46.312Z,0
2018-01-18T00:21:56.024Z,0
2018-01-18T00:23:05.998Z,0
2018-01-18T00:24:15.970Z,0
2018-01-18T00:25:25.946Z,0
2018-01-18T00:26:35.389Z,0
2018-01-18T00:27:45.360Z,0
2018-01-18T00:28:55.338Z,0
2018-01-18T00:30:05.047Z,0
2018-01-18T00:31:14.492Z,0
2018-01-18T00:32:24.463Z,0
2018-01-18T00:33:34.446Z,0
2018-01-18T00:34:44.424Z,0
2018-01-18T00:35:54.400Z,0
2018-01-18T00:37:04.372Z,0
2018-01-18T00:38:14.349Z,0
2018-01-18T00:39:24.058Z,0
2018-01-18T00:40:34.035Z,0
2018-01-18T00:41:43.752Z,0
2018-01-18T00:42:53.725Z,0
2018-01-18T00:44:03.432Z,0
2018-01-18T00:45:13.406Z,0
2018-01-18T00:46:22.851Z,0
2018-01-18T00:47:32.825Z,0
2018-01-18T00:48:42.814Z,0
2018-01-18T00:49:52.522Z,0
2018-01-18T00:51:02.502Z,0
2018-01-18T00:52:12.212Z,0
2018-01-18T00:53:22.193Z,0
2018-01-18T00:54:32.215Z,0
2018-01-18T00:55:41.932Z,0
2018-01-18T00:56:51.643Z,0
2018-01-18T00:58:01.616Z,0
2018-01-18T00:59:11.326Z,0
2018-01-18T01:00:21.349Z,0
2018-01-18T01:01:31.325Z,0
2018-01-18T01:02:40.769Z,0
2018-01-18T01:03:50.478Z,0
2018-01-18T01:05:00.188Z,0
2018-01-18T01:06:09.632Z,0
2018-01-18T01:07:19.344Z,0
2018-01-18T01:08:29.049Z,0
2018-01-18T01:09:39.019Z,0
2018-01-18T01:10:48.726Z,0
2018-01-18T01:11:58.454Z,0
2018-01-18T01:13:08.160Z,0
2018-01-18T01:14:18.138Z,0
2018-01-18T01:15:27.844Z,0
2018-01-18T01:16:37.554Z,0
2018-01-18T01:17:47.630Z,0
2018-01-18T01:18:57.602Z,0
2018-01-18T01:20:07.046Z,0
2018-01-18T01:21:17.019Z,0
2018-01-18T01:22:26.737Z,0
2018-01-18T01:23:36.707Z,0
2018-01-18T01:24:46.684Z,0
2018-01-18T01:25:56.392Z,0
2018-01-18T01:27:06.363Z,0
2018-01-18T01:28:16.338Z,0
2018-01-18T01:29:26.318Z,0
2018-01-18T01:30:36.298Z,0
2018-01-18T01:31:46.276Z,0
2018-01-18T01:32:55.989Z,0
2018-01-18T01:34:05.432Z,0
2018-01-18T01:35:15.411Z,0
2018-01-18T01:36:25.382Z,0
2018-01-18T01:37:35.356Z,0
2018-01-18T01:38:45.073Z,0
2018-01-18T01:39:55.056Z,0
2018-01-18T01:41:04.764Z,0
2018-01-18T01:42:14.738Z,0
2018-01-18T01:43:24.443Z,0
2018-01-18T01:44:34.158Z,0
2018-01-18T01:45:44.134Z,0
2018-01-18T01:46:54.107Z,0
2018-01-18T01:48:04.085Z,0
2018-01-18T01:49:14.062Z,0
2018-01-18T01:50:23.518Z,0
2018-01-18T01:51:33.234Z,0
2018-01-18T01:52:43.209Z,0
2018-01-18T01:53:53.183Z,0
2018-01-18T01:55:03.171Z,0
2018-01-18T01:56:12.615Z,0
2018-01-18T01:57:22.660Z,0
2018-01-18T01:58:32.634Z,0
2018-01-18T01:59:42.344Z,0
2018-01-18T02:00:52.054Z,0
2018-01-18T02:02:01.764Z,0
2018-01-18T02:03:11.742Z,0
2018-01-18T02:04:21.717Z,0
2018-01-18T02:05:31.689Z,0
2018-01-18T02:06:41.665Z,0
2018-01-18T02:07:51.376Z,0
2018-01-18T02:09:01.136Z,0
2018-01-18T02:10:11.112Z,0
2018-01-18T02:11:21.080Z,0
2018-01-18T02:12:30.786Z,0
2018-01-18T02:13:40.758Z,0
2018-01-18T02:14:50.468Z,0
2018-01-18T02:16:00.444Z,0
2018-01-18T02:17:10.415Z,0
2018-01-18T02:18:20.122Z,0
2018-01-18T02:19:29.832Z,0
2018-01-18T02:20:39.537Z,0
2018-01-18T02:21:49.517Z,0
2018-01-18T02:22:59.237Z,0
2018-01-18T02:24:09.210Z,0
2018-01-18T02:25:19.185Z,0
2018-01-18T02:26:29.162Z,0
2018-01-18T02:27:38.870Z,0
2018-01-18T02:28:48.841Z,0
2018-01-18T02:29:58.552Z,0
2018-01-18T02:31:07.996Z,0
2018-01-18T02:32:17.981Z,0
2018-01-18T02:33:27.960Z,0
2018-01-18T02:34:37.931Z,0
2018-01-18T02:35:47.911Z,0
2018-01-18T02:36:57.622Z,0
2018-01-18T02:38:07.594Z,0
2018-01-18T02:39:17.648Z,0
2018-01-18T02:40:27.632Z,0
2018-01-18T02:41:37.344Z,0
2018-01-18T02:42:47.053Z,0
2018-01-18T02:43:57.026Z,0
2018-01-18T02:45:06.995Z,0
2018-01-18T02:46:16.981Z,0
2018-01-18T02:47:26.960Z,0
2018-01-18T02:48:36.404Z,0
2018-01-18T02:49:46.377Z,0
2018-01-18T02:50:56.140Z,0
2018-01-18T02:52:05.891Z,0
2018-01-18T02:53:15.872Z,0
2018-01-18T02:54:25.853Z,0
2018-01-18T02:55:35.832Z,0
2018-01-18T02:56:45.646Z,0
2018-01-18T02:57:55.356Z,0
2018-01-18T02:59:05.327Z,0
2018-01-18T03:00:15.041Z,0
2018-01-18T03:01:25.016Z,0
2018-01-18T03:02:34.721Z,0
2018-01-18T03:03:44.426Z,0
2018-01-18T03:04:54.401Z,0
2018-01-18T03:06:04.371Z,0
2018-01-18T03:07:14.346Z,0
2018-01-18T03:08:24.475Z,0
2018-01-18T03:09:34.189Z,0
2018-01-18T03:10:43.895Z,0
2018-01-18T03:11:53.338Z,0
2018-01-18T03:13:03.049Z,0
2018-01-18T03:14:13.019Z,0
2018-01-18T03:15:22.999Z,0
2018-01-18T03:16:32.705Z,0
2018-01-18T03:17:42.417Z,0
2018-01-18T03:18:52.387Z,0
2018-01-18T03:20:02.246Z,0
2018-01-18T03:21:11.955Z,0
2018-01-18T03:22:21.927Z,0
2018-01-18T03:23:31.902Z,0
2018-01-18T03:24:41.878Z,0
2018-01-18T03:25:51.635Z,0
2018-01-18T03:27:01.119Z,0
2018-01-18T03:28:10.828Z,0
2018-01-18T03:29:20.800Z,0
2018-01-18T03:30:30.529Z,0
2018-01-18T03:31:40.516Z,0
2018-01-18T03:32:50.504Z,0
2018-01-18T03:34:00.490Z,0
2018-01-18T03:35:10.465Z,0
2018-01-18T03:36:20.441Z,0
2018-01-18T03:37:30.152Z,0
2018-01-18T03:38:40.127Z,0
2018-01-18T03:39:50.100Z,0
2018-01-18T03:40:59.553Z,0
2018-01-18T03:42:09.259Z,0
2018-01-18T03:43:18.966Z,0
2018-01-18T03:44:28.677Z,0
2018-01-18T03:45:38.384Z,0
2018-01-18T03:46:48.092Z,0
2018-01-18T03:47:57.535Z,0
2018-01-18T03:49:07.252Z,0
2018-01-18T03:50:16.967Z,0
2018-01-18T03:51:26.679Z,0
2018-01-18T03:52:36.387Z,0
2018-01-18T03:53:46.361Z,0
2018-01-18T03:54:56.345Z,0
2018-01-18T03:56:06.316Z,0
2018-01-18T03:57:16.291Z,0
2018-01-18T03:58:26.269Z,0
2018-01-18T03:59:35.979Z,0
2018-01-18T04:00:45.951Z,0
2018-01-18T04:04:28.233Z,0
2018-01-18T04:05:37.946Z,0
2018-01-18T04:06:47.921Z,0
2018-01-18T04:07:57.890Z,0
2018-01-18T04:09:07.598Z,0
2018-01-18T04:10:17.308Z,0
2018-01-18T04:11:27.281Z,0
2018-01-18T04:12:37.255Z,0
2018-01-18T04:13:47.227Z,0
2018-01-18T04:14:56.673Z,0
2018-01-18T04:16:06.381Z,0
2018-01-18T04:17:16.090Z,0
2018-01-18T04:18:26.067Z,0
2018-01-18T04:19:36.048Z,0
2018-01-18T04:20:46.024Z,0
2018-01-18T04:21:55.995Z,0
2018-01-18T04:23:05.440Z,0
2018-01-18T04:24:15.414Z,0
2018-01-18T04:25:25.124Z,0
2018-01-18T04:26:35.102Z,0
2018-01-18T04:27:44.808Z,0
2018-01-18T04:28:54.515Z,0
2018-01-18T04:30:04.486Z,0
2018-01-18T04:31:14.200Z,0
2018-01-18T04:32:23.910Z,0
2018-01-18T04:33:33.618Z,0
2018-01-18T04:34:43.640Z,0
2018-01-18T04:35:53.347Z,0
2018-01-18T04:37:03.319Z,0
2018-01-18T04:38:12.501Z,0
2018-01-18T04:39:22.475Z,0
2018-01-18T04:40:32.183Z,0
2018-01-18T04:41:42.199Z,0
2018-01-18T04:42:52.177Z,0
2018-01-18T04:44:02.146Z,0
2018-01-18T04:45:11.855Z,0
2018-01-18T04:46:21.829Z,0
2018-01-18T04:47:31.274Z,0
2018-01-18T04:48:41.250Z,0
2018-01-18T04:49:50.695Z,0
2018-01-18T04:51:00.405Z,0
2018-01-18T04:52:10.485Z,0
2018-01-18T04:53:20.196Z,0
2018-01-18T04:54:29.903Z,0
2018-01-18T04:55:39.348Z,0
2018-01-18T04:56:49.324Z,0
2018-01-18T04:57:59.301Z,0
2018-01-18T04:59:09.275Z,0
2018-01-18T05:00:18.986Z,0
2018-01-18T05:01:28.956Z,0
2018-01-18T05:02:38.931Z,0
2018-01-18T05:03:48.903Z,0
2018-01-18T05:04:58.984Z,0
2018-01-18T05:06:08.694Z,0
2018-01-18T05:07:18.402Z,0
2018-01-18T05:08:28.107Z,0
2018-01-18T05:09:38.102Z,0
2018-01-18T05:10:47.809Z,0
2018-01-18T05:11:57.524Z,0
2018-01-18T05:13:07.595Z,0
2018-01-18T05:14:17.303Z,0
2018-01-18T05:15:27.272Z,0
2018-01-18T05:16:37.244Z,0
2018-01-18T05:17:47.223Z,0
2018-01-18T05:18:57.196Z,0
2018-01-18T05:20:07.177Z,0
2018-01-18T05:21:16.885Z,0
2018-01-18T05:22:26.591Z,0
2018-01-18T05:23:36.633Z,0
2018-01-18T05:24:46.607Z,0
2018-01-18T05:25:56.056Z,0
2018-01-18T05:27:05.503Z,0
2018-01-18T05:28:14.942Z,0
2018-01-18T05:29:24.917Z,0
2018-01-18T05:30:34.895Z,0
2018-01-18T05:31:44.914Z,0
2018-01-18T05:32:54.628Z,0
2018-01-18T05:34:04.334Z,0
2018-01-18T05:35:14.305Z,0
2018-01-18T05:36:24.278Z,0
2018-01-18T05:37:34.297Z,0
2018-01-18T05:38:43.787Z,0
2018-01-18T05:39:53.763Z,0
2018-01-18T05:41:03.739Z,0
2018-01-18T05:42:13.446Z,0
2018-01-18T05:43:23.259Z,0
2018-01-18T05:44:33.236Z,0
2018-01-18T05:45:43.208Z,0
2018-01-18T05:46:53.190Z,0
2018-01-18T05:48:03.168Z,0
2018-01-18T05:49:13.140Z,0
2018-01-18T05:50:22.849Z,0
2018-01-18T05:51:32.822Z,0
2018-01-18T05:52:42.804Z,0
2018-01-18T05:53:52.781Z,0
2018-01-18T05:55:02.751Z,0
2018-01-18T05:56:12.470Z,0
2018-01-18T05:57:22.567Z,0
2018-01-18T05:58:32.271Z,0
2018-01-18T05:59:42.266Z,0
2018-01-18T06:00:51.978Z,0
2018-01-18T06:02:01.737Z,0
2018-01-18T06:03:10.927Z,0
2018-01-18T06:04:20.107Z,0
2018-01-18T06:05:29.823Z,0
2018-01-18T06:06:39.535Z,0
2018-01-18T06:07:49.039Z,0
2018-01-18T06:08:58.747Z,0
2018-01-18T06:10:08.191Z,0
2018-01-18T06:11:18.161Z,0
2018-01-18T06:12:28.205Z,0
2018-01-18T06:13:38.492Z,0
2018-01-18T06:14:48.532Z,0
2018-01-18T06:15:58.509Z,0
2018-01-18T06:17:08.226Z,0
2018-01-18T06:18:18.178Z,0
2018-01-18T06:19:27.959Z,0
2018-01-18T06:20:37.684Z,0
2018-01-18T06:21:47.402Z,0
2018-01-18T06:22:57.426Z,0
2018-01-18T06:24:07.410Z,0
2018-01-18T06:25:17.118Z,0
2018-01-18T06:26:26.826Z,0
2018-01-18T06:27:36.800Z,0
2018-01-18T06:28:46.778Z,0
2018-01-18T06:29:56.487Z,0
2018-01-18T06:31:06.471Z,0
2018-01-18T06:32:16.443Z,0
2018-01-18T06:33:26.157Z,0
2018-01-18T06:34:36.128Z,0
2018-01-18T06:35:46.099Z,0
2018-01-18T06:36:55.810Z,0
2018-01-18T06:38:05.788Z,0
2018-01-18T06:39:15.764Z,0
2018-01-18T06:40:25.743Z,0
2018-01-18T06:41:35.190Z,0
2018-01-18T06:42:45.169Z,0
2018-01-18T06:43:54.621Z,0
2018-01-18T06:45:04.338Z,0
2018-01-18T06:46:14.310Z,0
2018-01-18T06:47:24.286Z,0
2018-01-18T06:48:33.994Z,0
2018-01-18T06:49:43.972Z,0
2018-01-18T06:50:53.951Z,0
2018-01-18T06:52:03.925Z,0
2018-01-18T06:53:13.911Z,0
2018-01-18T06:54:23.937Z,0
2018-01-18T06:55:33.383Z,0
2018-01-18T06:56:43.356Z,0
2018-01-18T06:57:53.328Z,0
2018-01-18T06:59:03.308Z,0
2018-01-18T07:00:13.122Z,0
2018-01-18T07:01:23.096Z,0
2018-01-18T07:02:33.073Z,0
2018-01-18T07:03:43.054Z,0
2018-01-18T07:04:52.763Z,0
2018-01-18T07:06:02.804Z,0
2018-01-18T07:07:12.779Z,0
2018-01-18T07:08:22.756Z,0
2018-01-18T07:09:32.729Z,0
2018-01-18T07:10:42.443Z,0
2018-01-18T07:11:52.256Z,0
2018-01-18T07:13:02.230Z,0
2018-01-18T07:14:11.939Z,0
2018-01-18T07:15:21.920Z,0
2018-01-18T07:16:31.897Z,0
2018-01-18T07:17:41.614Z,0
2018-01-18T07:18:51.654Z,0
2018-01-18T07:20:01.630Z,0
2018-01-18T07:21:11.610Z,0
2018-01-18T07:22:21.587Z,0
2018-01-18T07:23:31.567Z,0
2018-01-18T07:24:40.747Z,0
2018-01-18T07:25:50.457Z,0
2018-01-18T07:26:59.639Z,0
2018-01-18T07:28:09.354Z,0
2018-01-18T07:29:19.064Z,0
2018-01-18T07:30:29.037Z,0
2018-01-18T07:31:39.015Z,0
2018-01-18T07:32:49.003Z,0
2018-01-18T07:33:58.448Z,0
2018-01-18T07:35:08.518Z,0
2018-01-18T07:36:18.491Z,0
2018-01-18T07:37:28.465Z,0
2018-01-18T07:38:38.440Z,0
2018-01-18T07:39:47.887Z,0
2018-01-18T07:40:57.913Z,0
2018-01-18T07:42:07.623Z,0
2018-01-18T07:43:17.600Z,0
2018-01-18T07:44:27.579Z,0
2018-01-18T07:45:37.554Z,0
2018-01-18T07:46:47.549Z,0
2018-01-18T07:47:57.266Z,0
2018-01-18T07:49:07.243Z,0
2018-01-18T07:50:16.954Z,0
2018-01-18T07:51:26.661Z,0
2018-01-18T07:52:36.635Z,0
2018-01-18T07:53:46.344Z,0
2018-01-18T07:54:56.314Z,0
2018-01-18T07:56:06.295Z,0
2018-01-18T07:57:16.010Z,0
2018-01-18T07:58:26.032Z,0
2018-01-18T07:59:35.813Z,0
2018-01-18T08:00:45.521Z,0
2018-01-18T08:01:55.509Z,0
2018-01-18T08:03:05.545Z,5
2018-01-18T08:04:15.531Z,5
2018-01-18T08:05:25.243Z,5
2018-01-18T08:06:34.951Z,5
2018-01-18T08:07:44.664Z,5
2018-01-18T08:08:54.109Z,5
2018-01-18T08:10:03.824Z,5
2018-01-18T08:11:13.531Z,5
2018-01-18T08:12:23.239Z,5
2018-01-18T08:13:33.222Z,5
2018-01-18T08:14:42.929Z,5
2018-01-18T08:15:52.753Z,5
2018-01-18T08:17:02.525Z,5
2018-01-18T08:18:11.973Z,10
2018-01-18T08:19:21.997Z,10
2018-01-18T08:20:31.983Z,10
2018-01-18T08:21:41.792Z,10
2018-01-18T08:22:51.770Z,10
2018-01-18T08:24:01.746Z,10
2018-01-18T08:25:11.464Z,10
2018-01-18T08:26:21.435Z,10
2018-01-18T08:27:31.407Z,10
2018-01-18T08:28:41.379Z,10
2018-01-18T08:29:51.099Z,15
2018-01-18T08:31:00.544Z,15
2018-01-18T08:32:09.991Z,15
2018-01-18T08:33:20.079Z,15
2018-01-18T08:34:30.097Z,15
2018-01-18T08:35:39.806Z,15
2018-01-18T08:36:49.782Z,15
2018-01-18T08:37:58.963Z,15
2018-01-18T08:39:08.676Z,15
2018-01-18T08:40:18.651Z,20
2018-01-18T08:41:28.388Z,20
2018-01-18T08:42:38.367Z,20
2018-01-18T08:43:48.341Z,20
2018-01-18T08:44:58.055Z,20
2018-01-18T08:46:08.029Z,25
2018-01-18T08:47:18.004Z,25
2018-01-18T08:48:27.983Z,25
2018-01-18T08:49:37.690Z,25
2018-01-18T08:50:47.403Z,25
2018-01-18T08:51:57.114Z,25
2018-01-18T08:53:06.823Z,30
2018-01-18T08:54:16.802Z,30
2018-01-18T08:55:26.782Z,30
2018-01-18T08:56:36.762Z,30
2018-01-18T08:57:46.479Z,30
2018-01-18T08:58:56.197Z,35
2018-01-18T09:00:06.202Z,35
2018-01-18T09:01:16.180Z,35
2018-01-18T09:02:25.887Z,35
2018-01-18T09:03:35.865Z,35
2018-01-18T09:04:45.843Z,40
2018-01-18T09:05:55.551Z,40
2018-01-18T09:07:05.527Z,40
2018-01-18T09:08:16.134Z,45
2018-01-18T09:09:26.116Z,45
2018-01-18T09:10:36.091Z,45
2018-01-18T09:11:46.071Z,45
2018-01-18T09:12:56.050Z,50
2018-01-18T09:14:06.125Z,50
2018-01-18T09:15:15.577Z,50
2018-01-18T09:16:25.558Z,55
2018-01-18T09:17:35.268Z,60
2018-01-18T09:18:44.983Z,60
2018-01-18T09:19:54.428Z,60
2018-01-18T09:21:04.432Z,60
2018-01-18T09:22:14.485Z,65
2018-01-18T09:23:24.192Z,65
2018-01-18T09:24:33.902Z,65
2018-01-18T09:25:43.611Z,65
2018-01-18T09:26:53.329Z,65
2018-01-18T09:28:03.147Z,60
2018-01-18T09:29:12.873Z,60
2018-01-18T09:30:22.909Z,60
2018-01-18T09:31:32.676Z,60
2018-01-18T09:32:42.699Z,55
2018-01-18T09:33:52.144Z,55
2018-01-18T09:35:02.117Z,55
2018-01-18T09:36:11.830Z,55
2018-01-18T09:37:21.804Z,55
2018-01-18T09:38:31.777Z,60
2018-01-18T09:39:41.855Z,60
2018-01-18T09:40:51.825Z,60
2018-01-18T09:42:01.270Z,65
2018-01-18T09:43:11.301Z,65
2018-01-18T09:44:21.016Z,70
2018-01-18T09:45:31.001Z,70
2018-01-18T09:46:40.710Z,70
2018-01-18T09:47:50.424Z,70
2018-01-18T09:49:00.138Z,70
2018-01-18T09:50:10.112Z,70
2018-01-18T09:51:19.819Z,70
2018-01-18T09:52:29.791Z,70
2018-01-18T09:53:39.551Z,70
2018-01-18T09:54:49.527Z,70
2018-01-18T09:55:58.973Z,70
2018-01-18T09:57:08.689Z,75
2018-01-18T09:58:18.401Z,75
2018-01-18T09:59:28.108Z,80
2018-01-18T10:00:38.189Z,80
2018-01-18T10:01:48.259Z,80
2018-01-18T10:02:57.454Z,80
2018-01-18T10:04:07.435Z,80
2018-01-18T10:05:17.473Z,80
2018-01-18T10:06:27.186Z,80
2018-01-18T10:07:36.945Z,75
2018-01-18T10:08:46.654Z,75
2018-01-18T10:09:56.365Z,75
2018-01-18T10:11:06.073Z,75
2018-01-18T10:12:15.798Z,80
2018-01-18T10:13:25.523Z,80
2018-01-18T10:14:35.398Z,85
2018-01-18T10:15:45.118Z,85
2018-01-18T10:16:54.827Z,90
2018-01-18T10:18:04.815Z,90
2018-01-18T10:19:14.528Z,90
2018-01-18T10:20:24.243Z,90
2018-01-18T10:21:33.963Z,95
2018-01-18T10:22:43.691Z,95
2018-01-18T10:23:52.874Z,95
2018-01-18T10:25:02.617Z,100
2018-01-18T10:26:12.081Z,100
2018-01-18T10:27:21.799Z,95
2018-01-18T10:28:31.280Z,100
2018-01-18T10:29:40.460Z,105
2018-01-18T10:30:50.175Z,105
2018-01-18T10:31:59.891Z,110
2018-01-18T10:33:09.647Z,110
2018-01-18T10:34:19.094Z,115
2018-01-18T10:35:28.544Z,120
2018-01-18T10:36:37.991Z,120
2018-01-18T10:37:47.710Z,120
2018-01-18T10:38:57.688Z,120
2018-01-18T10:40:07.405Z,120
2018-01-18T10:41:17.116Z,120
2018-01-18T10:42:26.568Z,120
2018-01-18T10:43:36.018Z,120
2018-01-18T10:44:45.945Z,120
2018-01-18T10:45:55.668Z,120
2018-01-18T10:47:05.647Z,120
2018-01-18T10:48:15.362Z,120
2018-01-18T10:49:24.548Z,120
2018-01-18T10:50:34.266Z,120
2018-01-18T10:51:43.459Z,120
2018-01-18T10:52:52.908Z,125
2018-01-18T10:54:02.882Z,125
2018-01-18T10:55:12.338Z,125
2018-01-18T10:56:22.049Z,125
2018-01-18T10:57:31.235Z,130
2018-01-18T10:58:40.958Z,130
2018-01-18T10:59:50.938Z,135
2018-01-18T11:00:59.857Z,130
2018-01-18T11:02:09.062Z,125
2018-01-18T11:03:17.979Z,125
2018-01-18T11:04:27.183Z,125
2018-01-18T11:05:36.650Z,125
2018-01-18T11:06:46.360Z,120
2018-01-18T11:07:56.401Z,125
2018-01-18T11:09:05.848Z,125
2018-01-18T11:10:15.613Z,125
2018-01-18T11:11:24.531Z,125
2018-01-18T11:12:33.981Z,125
2018-01-18T11:13:43.693Z,130
2018-01-18T11:14:53.407Z,130
2018-01-18T11:16:03.426Z,130
2018-01-18T11:17:13.141Z,135
2018-01-18T11:18:23.173Z,140
2018-01-18T11:19:33.154Z,145
2018-01-18T11:20:43.126Z,145
2018-01-18T11:21:53.103Z,145
2018-01-18T11:23:02.814Z,145
2018-01-18T11:24:12.531Z,150
2018-01-18T11:25:22.251Z,155
2018-01-18T11:26:32.257Z,155
2018-01-18T11:27:42.470Z,155
2018-01-18T11:28:52.446Z,155
2018-01-18T11:30:02.169Z,155
2018-01-18T11:31:12.145Z,170
2018-01-18T11:32:22.122Z,160
2018-01-18T11:33:31.569Z,155
2018-01-18T11:34:41.549Z,155
2018-01-18T11:35:51.262Z,155
2018-01-18T11:37:01.251Z,155
2018-01-18T11:38:10.696Z,155
2018-01-18T11:39:20.145Z,150
2018-01-18T11:40:29.855Z,150
2018-01-18T11:41:39.869Z,150
2018-01-18T11:42:49.324Z,150
2018-01-18T11:43:59.310Z,150
2018-01-18T11:45:09.291Z,145
2018-01-18T11:46:19.006Z,140
2018-01-18T11:47:28.981Z,140
2018-01-18T11:48:38.431Z,140
2018-01-18T11:49:48.406Z,140
2018-01-18T11:50:57.855Z,140
2018-01-18T11:52:07.576Z,145
2018-01-18T11:53:17.552Z,145
2018-01-18T11:54:27.259Z,145
2018-01-18T11:55:36.971Z,140
2018-01-18T11:56:47.093Z,140
2018-01-18T11:57:56.803Z,145
2018-01-18T11:59:05.992Z,145
2018-01-18T12:00:15.973Z,140
2018-01-18T12:01:25.963Z,135
2018-01-18T12:02:36.041Z,135
2018-01-18T12:03:46.015Z,135
2018-01-18T12:04:55.992Z,140
2018-01-18T12:06:05.705Z,140
2018-01-18T12:07:14.887Z,135
2018-01-18T12:08:24.863Z,140
2018-01-18T12:09:34.309Z,140
2018-01-18T12:10:43.756Z,140
2018-01-18T12:11:53.207Z,140
2018-01-18T12:13:03.189Z,135
2018-01-18T12:14:13.225Z,140
2018-01-18T12:15:23.201Z,135
2018-01-18T12:16:32.918Z,135
2018-01-18T12:17:42.896Z,135
2018-01-18T12:18:53.042Z,140
2018-01-18T12:20:02.804Z,140
2018-01-18T12:21:12.568Z,135
2018-01-18T12:22:22.282Z,135
2018-01-18T12:23:32.004Z,130
2018-01-18T12:24:41.978Z,130
2018-01-18T12:25:51.986Z,130
2018-01-18T12:27:01.969Z,130
2018-01-18T12:28:11.684Z,125
2018-01-18T12:29:21.395Z,120
2018-01-18T12:30:31.116Z,120
2018-01-18T12:31:40.565Z,115
2018-01-18T12:32:50.569Z,115
2018-01-18T12:33:59.753Z,120
2018-01-18T12:35:09.475Z,120
2018-01-18T12:36:19.184Z,115
2018-01-18T12:37:29.221Z,115
2018-01-18T12:38:38.404Z,110
2018-01-18T12:39:48.380Z,105
2018-01-18T12:40:58.092Z,110
2018-01-18T12:42:08.074Z,105
2018-01-18T12:43:17.788Z,100
2018-01-18T12:44:27.500Z,100
2018-01-18T12:45:37.473Z,100
2018-01-18T12:46:47.477Z,95
2018-01-18T12:47:56.959Z,95
2018-01-18T12:49:06.675Z,95
2018-01-18T12:50:16.385Z,95
2018-01-18T12:51:25.829Z,95
2018-01-18T12:52:35.807Z,95
2018-01-18T12:53:45.255Z,95
2018-01-18T12:54:54.439Z,95
2018-01-18T12:56:04.416Z,90
2018-01-18T12:57:13.870Z,90
2018-01-18T12:58:23.864Z,90
2018-01-18T12:59:33.577Z,90
2018-01-18T13:00:43.069Z,90
2018-01-18T13:01:53.055Z,90
2018-01-18T13:03:03.034Z,85
2018-01-18T13:04:12.749Z,85
2018-01-18T13:05:22.733Z,85
2018-01-18T13:06:32.498Z,85
2018-01-18T13:07:42.210Z,85
2018-01-18T13:08:52.197Z,85
2018-01-18T13:10:02.178Z,85
2018-01-18T13:11:11.893Z,85
2018-01-18T13:12:22.583Z,85
2018-01-18T13:13:32.567Z,85
2018-01-18T13:14:42.651Z,85
2018-01-18T13:15:52.362Z,85
2018-01-18T13:17:02.391Z,85
2018-01-18T13:18:12.103Z,80
2018-01-18T13:19:22.090Z,80
2018-01-18T13:20:32.069Z,75
2018-01-18T13:21:41.786Z,75
2018-01-18T13:22:51.497Z,70
2018-01-18T13:24:01.210Z,70
2018-01-18T13:25:10.923Z,65
2018-01-18T13:26:20.904Z,65
2018-01-18T13:27:30.892Z,65
2018-01-18T13:28:40.871Z,60
2018-01-18T13:29:50.322Z,60
2018-01-18T13:31:00.040Z,60
2018-01-18T13:32:09.487Z,65
2018-01-18T13:33:19.461Z,65
2018-01-18T13:34:29.438Z,65
2018-01-18T13:35:39.416Z,60
2018-01-18T13:36:49.134Z,60
2018-01-18T13:37:58.586Z,60
2018-01-18T13:39:08.562Z,60
2018-01-18T13:40:18.278Z,60
2018-01-18T13:41:27.991Z,55
2018-01-18T13:42:38.037Z,55
2018-01-18T13:43:47.754Z,50
2018-01-18T13:44:57.739Z,50
2018-01-18T13:46:07.454Z,50
2018-01-18T13:47:17.435Z,50
2018-01-18T13:48:27.410Z,50
2018-01-18T13:49:37.386Z,45
2018-01-18T13:50:47.103Z,45
2018-01-18T13:51:56.815Z,45
2018-01-18T13:53:06.795Z,40
2018-01-18T13:54:16.507Z,40
2018-01-18T13:55:26.570Z,40
2018-01-18T13:56:36.290Z,40
2018-01-18T13:57:46.262Z,40
2018-01-18T13:58:56.087Z,40
2018-01-18T14:00:05.799Z,40
2018-01-18T14:01:15.244Z,35
2018-01-18T14:02:24.955Z,35
2018-01-18T14:03:34.971Z,35
2018-01-18T14:04:44.959Z,35
2018-01-18T14:05:54.666Z,35
2018-01-18T14:07:04.115Z,35
2018-01-18T14:08:13.826Z,35
2018-01-18T14:09:23.014Z,30
2018-01-18T14:10:32.992Z,30
2018-01-18T14:11:43.002Z,30
2018-01-18T14:12:52.982Z,30
2018-01-18T14:14:02.714Z,30
2018-01-18T14:15:12.169Z,30
2018-01-18T14:16:22.153Z,30
2018-01-18T14:17:31.600Z,30
2018-01-18T14:18:41.309Z,30
2018-01-18T14:19:51.287Z,25
2018-01-18T14:21:00.784Z,25
2018-01-18T14:22:10.501Z,25
2018-01-18T14:23:19.957Z,25
2018-01-18T14:24:29.671Z,25
2018-01-18T14:25:39.116Z,25
2018-01-18T14:26:48.829Z,20
2018-01-18T14:27:58.547Z,20
2018-01-18T14:29:08.264Z,20
2018-01-18T14:30:17.975Z,20
2018-01-18T14:31:27.689Z,15
2018-01-18T14:32:37.669Z,15
2018-01-18T14:33:47.748Z,15
2018-01-18T14:34:57.797Z,15
2018-01-18T14:36:07.777Z,15
2018-01-18T14:37:17.223Z,15
2018-01-18T14:38:26.936Z,15
2018-01-18T14:39:36.645Z,15
2018-01-18T14:40:46.409Z,10
2018-01-18T14:41:56.460Z,10
2018-01-18T14:43:06.437Z,10
2018-01-18T14:44:16.155Z,10
2018-01-18T14:45:25.914Z,10
2018-01-18T14:46:35.098Z,10
2018-01-18T14:47:45.262Z,10
2018-01-18T14:48:54.980Z,10
2018-01-18T14:50:04.957Z,5
2018-01-18T14:51:14.767Z,5
2018-01-18T14:52:24.736Z,5
2018-01-18T14:53:34.707Z,5
2018-01-18T14:54:44.413Z,5
2018-01-18T14:55:53.859Z,5
2018-01-18T14:57:03.831Z,5
2018-01-18T14:58:13.807Z,5
2018-01-18T14:59:23.807Z,5
2018-01-18T15:00:33.515Z,5
2018-01-18T15:01:43.531Z,0
2018-01-18T15:02:53.236Z,0
2018-01-18T15:04:02.951Z,0
2018-01-18T15:05:12.660Z,0
2018-01-18T15:06:22.627Z,0
2018-01-18T15:07:32.598Z,0
2018-01-18T15:08:42.564Z,0
2018-01-18T15:09:52.534Z,0
2018-01-18T15:11:02.516Z,0
2018-01-18T15:12:12.224Z,0
2018-01-18T15:13:22.201Z,0
2018-01-18T15:14:32.012Z,0
2018-01-18T15:15:41.987Z,0
2018-01-18T15:16:51.968Z,0
2018-01-18T15:18:01.942Z,0
2018-01-18T15:19:11.647Z,0
2018-01-18T15:20:21.369Z,0
2018-01-18T15:21:31.073Z,0
2018-01-18T15:22:40.783Z,0
2018-01-18T15:23:50.777Z,0
2018-01-18T15:25:00.751Z,0
2018-01-18T15:26:10.728Z,0
2018-01-18T15:27:20.435Z,0
2018-01-18T15:28:30.406Z,0
2018-01-18T15:29:40.119Z,0
2018-01-18T15:30:49.834Z,0
2018-01-18T15:31:59.806Z,0
2018-01-18T15:33:09.785Z,0
2018-01-18T15:34:19.755Z,0
2018-01-18T15:35:28.934Z,0
2018-01-18T15:36:38.905Z,0
2018-01-18T15:37:48.616Z,0
2018-01-18T15:38:58.603Z,0
2018-01-18T15:40:08.328Z,0
2018-01-18T15:41:18.034Z,0
2018-01-18T15:42:27.749Z,0
2018-01-18T15:43:37.192Z,0
2018-01-18T15:44:47.167Z,0
2018-01-18T15:45:57.143Z,0
2018-01-18T15:47:07.227Z,0
2018-01-18T15:48:16.867Z,0
2018-01-18T15:49:26.316Z,0
2018-01-18T15:50:36.292Z,0
2018-01-18T15:51:46.010Z,0
2018-01-18T15:52:55.988Z,0
2018-01-18T15:54:05.704Z,0
2018-01-18T15:55:15.415Z,0
2018-01-18T15:56:24.864Z,0
2018-01-18T15:57:34.598Z,0
2018-01-18T15:58:44.576Z,0
2018-01-18T15:59:54.021Z,0
2018-01-18T16:01:03.995Z,0
2018-01-18T16:02:13.705Z,0
2018-01-18T16:03:23.150Z,0
2018-01-18T16:04:33.180Z,0
2018-01-18T16:05:43.151Z,0
2018-01-18T16:06:52.865Z,0
2018-01-18T16:08:02.308Z,0
2018-01-18T16:09:12.285Z,0
2018-01-18T16:10:22.260Z,0
2018-01-18T16:11:32.231Z,0
2018-01-18T16:12:41.942Z,0
2018-01-18T16:13:51.125Z,0
2018-01-18T16:15:00.305Z,0
2018-01-18T16:16:10.017Z,0
2018-01-18T16:17:19.990Z,0
2018-01-18T16:18:30.020Z,0
2018-01-18T16:19:39.766Z,0
2018-01-18T16:20:49.763Z,0
2018-01-18T16:21:59.475Z,0
2018-01-18T16:23:09.451Z,0
2018-01-18T16:24:19.438Z,0
2018-01-18T16:25:29.414Z,0
2018-01-18T16:26:38.867Z,0
2018-01-18T16:27:48.847Z,0
2018-01-18T16:28:58.031Z,0
2018-01-18T16:30:07.745Z,0
2018-01-18T16:31:17.464Z,0
2018-01-18T16:32:27.440Z,0
2018-01-18T16:33:37.411Z,0
2018-01-18T16:34:47.387Z,0
2018-01-18T16:35:57.364Z,0
2018-01-18T16:37:06.822Z,0
2018-01-18T16:38:16.536Z,0
2018-01-18T16:39:26.514Z,0
2018-01-18T16:40:36.250Z,0
2018-01-18T16:41:46.230Z,0
2018-01-18T16:42:56.202Z,0
2018-01-18T16:44:06.227Z,0
2018-01-18T16:45:15.950Z,0
2018-01-18T16:46:25.183Z,0
2018-01-18T16:47:34.895Z,0
2018-01-18T16:48:44.871Z,0
2018-01-18T16:49:54.579Z,0
2018-01-18T16:51:04.560Z,0
2018-01-18T16:52:14.012Z,0
2018-01-18T16:53:23.722Z,0
2018-01-18T16:54:33.731Z,0
2018-01-18T16:55:43.452Z,0